createdAt,value
2024-02-01T00:01:24.190Z,31.65
2024-02-01T00:03:52.665Z,33.22
2024-02-01T00:06:21.266Z,32.28
2024-02-01T00:08:49.796Z,31.05
2024-02-01T00:11:18.613Z,31.30
2024-02-01T00:13:48.637Z,29.25
2024-02-01T00:16:22.358Z,31.23
2024-02-01T00:18:51.075Z,30.15
2024-02-01T00:21:20.506Z,30.35
2024-02-01T00:23:49.023Z,29.70
2024-02-01T00:26:17.432Z,30.48
2024-02-01T00:28:47.433Z,27.63
2024-02-01T00:31:15.783Z,32.58
2024-02-01T00:33:44.255Z,31.55
2024-02-01T00:36:12.806Z,32.35
2024-02-01T00:38:41.245Z,33.40
2024-02-01T00:41:09.712Z,31.77
2024-02-01T00:43:38.169Z,28.63
2024-02-01T00:46:08.148Z,29.90
2024-02-01T00:48:36.808Z,32.83
2024-02-01T00:51:06.120Z,27.80
2024-02-01T00:53:34.556Z,30.67
2024-02-01T00:56:02.929Z,29.30
2024-02-01T00:58:31.308Z,31.88
2024-02-01T01:01:00.323Z,29.75
2024-02-01T01:03:30.254Z,29.25
2024-02-01T01:05:58.706Z,29.08
2024-02-01T01:08:27.256Z,26.40
2024-02-01T01:10:55.644Z,28.10
2024-02-01T01:13:24.105Z,30.17
2024-02-01T01:15:54.731Z,29.15
2024-02-01T01:18:23.735Z,29.00
2024-02-01T01:20:53.754Z,28.77
2024-02-01T01:23:22.684Z,29.23
2024-02-01T01:25:51.815Z,28.00
2024-02-01T01:28:20.932Z,29.08
2024-02-01T01:30:52.839Z,29.00
2024-02-01T01:33:24.350Z,29.00
2024-02-01T01:35:54.874Z,27.15
2024-02-01T01:38:24.349Z,30.88
2024-02-01T01:40:53.354Z,28.08
2024-02-01T01:43:22.538Z,27.08
2024-02-01T01:46:02.898Z,29.80
2024-02-01T01:48:32.792Z,29.35
2024-02-01T01:51:03.720Z,26.98
2024-02-01T01:53:35.363Z,28.65
2024-02-01T01:56:04.494Z,28.80
2024-02-01T01:58:36.010Z,28.50
2024-02-01T02:01:05.573Z,28.70
2024-02-01T02:03:38.683Z,28.00
2024-02-01T02:06:09.448Z,27.73
2024-02-01T02:08:38.431Z,25.98
2024-02-01T02:11:07.523Z,27.90
2024-02-01T02:13:36.586Z,26.65
2024-02-01T02:16:05.307Z,28.17
2024-02-01T02:18:33.778Z,27.08
2024-02-01T02:21:05.124Z,27.40
2024-02-01T02:23:36.088Z,29.50
2024-02-01T02:26:08.673Z,29.08
2024-02-01T02:28:40.225Z,28.50
2024-02-01T02:31:08.604Z,29.20
2024-02-01T02:33:37.044Z,33.90
2024-02-01T02:36:11.103Z,30.27
2024-02-01T02:38:42.071Z,29.30
2024-02-01T02:41:10.468Z,28.88
2024-02-01T02:43:38.727Z,26.50
2024-02-01T02:46:07.114Z,27.95
2024-02-01T02:48:35.927Z,26.08
2024-02-01T02:51:04.492Z,26.88
2024-02-01T02:53:33.116Z,24.25
2024-02-01T02:56:06.372Z,24.58
2024-02-01T02:58:36.544Z,24.85
2024-02-01T03:01:09.523Z,26.00
2024-02-01T03:03:41.736Z,26.00
2024-02-01T03:06:10.943Z,26.45
2024-02-01T03:08:41.086Z,24.60
2024-02-01T03:11:12.108Z,25.38
2024-02-01T03:13:41.099Z,24.83
2024-02-01T03:16:17.936Z,26.25
2024-02-01T03:18:46.823Z,24.45
2024-02-01T03:21:16.141Z,25.88
2024-02-01T03:23:46.217Z,26.08
2024-02-01T04:34:24.772Z,28.13
2024-02-01T04:36:54.331Z,25.30
2024-02-01T04:39:22.740Z,22.10
2024-02-01T04:41:55.187Z,20.70
2024-02-01T04:44:23.681Z,22.65
2024-02-01T04:46:52.079Z,20.02
2024-02-01T04:49:20.617Z,22.42
2024-02-01T04:51:50.456Z,22.95
2024-02-01T04:54:18.904Z,23.17
2024-02-01T04:56:47.366Z,24.83
2024-02-01T04:59:15.732Z,23.17
2024-02-01T05:01:45.244Z,23.40
2024-02-01T05:04:15.071Z,22.77
2024-02-01T05:06:43.916Z,22.90
2024-02-01T05:09:27.083Z,23.23
2024-02-01T05:11:56.036Z,22.48
2024-02-01T05:14:24.772Z,22.52
2024-02-01T05:16:53.398Z,23.13
2024-02-01T05:19:23.267Z,21.65
2024-02-01T05:21:54.344Z,22.00
2024-02-01T05:24:24.673Z,22.80
2024-02-01T05:26:54.856Z,22.60
2024-02-01T05:29:24.374Z,23.45
2024-02-01T05:31:53.607Z,24.90
2024-02-01T05:34:23.222Z,21.58
2024-02-01T05:36:54.532Z,22.95
2024-02-01T05:39:27.220Z,25.08
2024-02-01T05:41:56.369Z,32.05
2024-02-01T05:44:25.847Z,28.75
2024-02-01T05:46:55.577Z,26.15
2024-02-01T05:49:24.276Z,25.65
2024-02-01T05:51:54.116Z,25.90
2024-02-01T05:54:23.915Z,23.88
2024-02-01T05:56:52.293Z,25.20
2024-02-01T05:59:22.037Z,24.17
2024-02-01T06:01:51.017Z,26.00
2024-02-01T06:04:19.528Z,26.15
2024-02-01T06:06:49.489Z,26.60
2024-02-01T06:09:19.000Z,26.65
2024-02-01T06:11:51.148Z,29.23
2024-02-01T06:14:20.121Z,27.13
2024-02-01T06:16:49.254Z,24.85
2024-02-01T06:19:19.178Z,25.90
2024-02-01T06:21:48.132Z,23.30
2024-02-01T06:24:20.209Z,23.80
2024-02-01T06:26:50.459Z,21.77
2024-02-01T06:29:19.547Z,26.17
2024-02-01T06:31:50.606Z,30.02
2024-02-01T06:34:25.931Z,33.55
2024-02-01T06:37:00.244Z,30.13
2024-02-01T06:39:52.016Z,30.13
2024-02-01T06:42:33.505Z,29.05
2024-02-01T06:45:25.986Z,25.85
2024-02-01T06:48:05.837Z,24.60
2024-02-01T06:50:56.210Z,25.45
2024-02-01T06:53:37.449Z,25.13
2024-02-01T06:56:15.573Z,25.98
2024-02-01T06:59:07.905Z,26.95
2024-02-01T07:01:55.447Z,24.33
2024-02-01T07:04:33.116Z,25.13
2024-02-01T07:07:19.060Z,25.77
2024-02-01T07:10:01.279Z,27.63
2024-02-01T07:12:44.797Z,21.27
2024-02-01T07:15:31.873Z,27.60
2024-02-01T07:18:05.156Z,24.27
2024-02-01T07:20:49.114Z,26.58
2024-02-01T07:23:40.173Z,29.42
2024-02-01T07:26:19.028Z,26.67
2024-02-01T07:29:05.707Z,27.73
2024-02-01T07:31:53.556Z,26.83
2024-02-01T07:34:39.578Z,28.85
2024-02-01T07:37:26.391Z,27.88
2024-02-01T07:40:15.171Z,28.02
2024-02-01T07:43:01.279Z,24.92
2024-02-01T07:45:47.165Z,23.65
2024-02-01T07:48:35.224Z,24.15
2024-02-01T07:51:21.558Z,26.40
2024-02-01T07:54:08.146Z,25.48
2024-02-01T07:56:54.583Z,24.45
2024-02-01T07:59:31.145Z,24.40
2024-02-01T08:02:15.046Z,23.65
2024-02-01T08:05:04.359Z,24.92
2024-02-01T08:07:50.583Z,25.02
2024-02-01T08:10:21.162Z,27.52
2024-02-01T08:12:51.014Z,25.42
2024-02-01T08:15:21.572Z,28.40
2024-02-01T08:17:52.326Z,25.33
2024-02-01T08:20:23.675Z,28.20
2024-02-01T08:22:55.989Z,26.58
2024-02-01T08:25:24.976Z,25.08
2024-02-01T08:27:56.142Z,26.63
2024-02-01T08:30:29.359Z,23.42
2024-02-01T08:35:42.038Z,21.50
2024-02-01T08:38:12.444Z,23.73
2024-02-01T08:40:42.689Z,27.35
2024-02-01T08:43:14.819Z,28.38
2024-02-01T08:45:46.561Z,24.55
2024-02-01T08:48:16.378Z,25.75
2024-02-01T08:50:53.222Z,28.05
2024-02-01T08:53:24.112Z,27.33
2024-02-01T08:55:57.266Z,25.88
2024-02-01T08:58:28.325Z,26.80
2024-02-01T09:00:57.541Z,26.27
2024-02-01T09:03:31.475Z,25.73
2024-02-01T09:06:27.057Z,26.33
2024-02-01T09:09:26.369Z,25.20
2024-02-01T09:16:02.326Z,29.17
2024-02-01T09:18:31.643Z,28.60
2024-02-01T09:21:08.869Z,29.13
2024-02-01T09:23:41.803Z,28.70
2024-02-01T09:28:43.064Z,27.02
2024-02-01T09:31:21.127Z,26.45
2024-02-01T09:33:52.481Z,30.65
2024-02-01T09:36:22.446Z,29.40
2024-02-01T09:38:53.881Z,30.83
2024-02-01T09:41:22.781Z,30.77
2024-02-01T09:43:53.607Z,27.70
2024-02-01T09:46:22.981Z,29.63
2024-02-01T09:48:56.499Z,29.50
2024-02-01T09:51:25.305Z,30.48
2024-02-01T09:53:55.713Z,30.45
2024-02-01T09:56:27.392Z,30.30
2024-02-01T09:58:57.484Z,30.63
2024-02-01T10:01:26.710Z,31.05
2024-02-01T10:03:55.599Z,30.25
2024-02-01T10:06:25.747Z,31.90
2024-02-01T10:08:56.007Z,31.45
2024-02-01T10:11:24.555Z,30.80
2024-02-01T10:13:53.036Z,32.70
2024-02-01T10:16:23.107Z,30.45
2024-02-01T10:18:56.544Z,32.80
2024-02-01T10:21:33.063Z,32.13
2024-02-01T10:26:41.337Z,29.85
2024-02-01T10:29:22.035Z,25.77
2024-02-01T10:31:57.723Z,30.35
2024-02-01T10:34:28.410Z,27.83
2024-02-01T10:37:02.624Z,31.33
2024-02-01T10:40:07.018Z,30.23
2024-02-01T10:42:37.970Z,28.35
2024-02-01T10:45:11.085Z,30.52
2024-02-01T10:47:49.441Z,30.70
2024-02-01T10:50:20.807Z,32.75
2024-02-01T10:52:52.150Z,33.83
2024-02-01T10:55:24.511Z,39.00
2024-02-01T10:57:53.774Z,41.13
2024-02-01T11:00:23.795Z,43.80
2024-02-01T11:02:59.637Z,29.25
2024-02-01T11:05:32.805Z,37.85
2024-02-01T11:08:01.620Z,28.05
2024-02-01T11:10:32.629Z,30.60
2024-02-01T11:13:01.270Z,29.90
2024-02-01T11:15:33.628Z,27.67
2024-02-01T11:18:10.948Z,30.38
2024-02-01T11:20:41.104Z,31.88
2024-02-01T11:23:09.841Z,31.33
2024-02-01T11:25:41.194Z,32.25
2024-02-01T11:28:13.664Z,31.42
2024-02-01T11:30:58.762Z,29.95
2024-02-01T11:33:36.083Z,30.27
2024-02-01T11:36:08.699Z,29.30
2024-02-01T11:38:37.768Z,33.10
2024-02-01T11:41:08.191Z,29.33
2024-02-01T11:43:40.042Z,29.92
2024-02-01T11:46:08.895Z,29.75
2024-02-01T11:48:43.829Z,29.20
2024-02-01T11:51:12.752Z,33.30
2024-02-01T11:53:41.216Z,32.03
2024-02-01T11:56:11.906Z,30.58
2024-02-01T11:58:40.361Z,30.38
2024-02-01T12:01:16.725Z,33.17
2024-02-01T12:03:51.132Z,30.88
2024-02-01T12:06:24.546Z,30.20
2024-02-01T12:08:53.851Z,30.65
2024-02-01T12:11:30.237Z,27.70
2024-02-01T12:14:02.658Z,31.67
2024-02-01T12:16:34.377Z,30.20
2024-02-01T12:19:05.767Z,31.13
2024-02-01T12:21:36.892Z,27.90
2024-02-01T12:24:05.743Z,27.75
2024-02-01T12:26:44.294Z,28.20
2024-02-01T12:29:12.868Z,27.23
2024-02-01T12:31:42.521Z,24.73
2024-02-01T12:34:14.865Z,27.52
2024-02-01T12:36:46.358Z,32.90
2024-02-01T12:39:15.344Z,27.48
2024-02-01T12:41:48.036Z,25.50
2024-02-01T12:44:17.693Z,26.40
2024-02-01T12:50:43.743Z,28.95
2024-02-01T12:56:55.409Z,31.30
2024-02-01T14:11:07.814Z,9.38
2024-02-01T14:23:43.180Z,11.45
2024-02-01T14:26:19.306Z,12.30
2024-02-01T14:28:50.842Z,10.57
2024-02-01T14:31:33.532Z,9.82
2024-02-01T14:34:03.067Z,12.23
2024-02-01T14:36:41.155Z,17.52
2024-02-01T14:39:23.439Z,13.75
2024-02-01T14:42:00.441Z,12.80
2024-02-01T14:44:30.081Z,10.00
2024-02-01T14:46:58.764Z,15.68
2024-02-01T14:49:27.771Z,12.93
2024-02-01T14:51:57.404Z,16.48
2024-02-01T14:54:27.606Z,21.10
2024-02-01T14:56:56.130Z,12.90
2024-02-01T14:59:25.469Z,12.48
2024-02-01T15:01:54.190Z,10.85
2024-02-01T15:04:22.920Z,10.07
2024-02-01T15:06:51.793Z,10.18
2024-02-01T15:09:22.935Z,7.22
2024-02-01T15:11:53.475Z,9.07
2024-02-01T15:14:22.209Z,10.55
2024-02-01T15:16:50.889Z,9.25
2024-02-01T15:19:20.800Z,10.18
2024-02-01T15:21:52.636Z,11.23
2024-02-01T15:24:24.046Z,13.68
2024-02-01T15:26:58.993Z,13.48
2024-02-01T15:29:27.597Z,14.98
2024-02-01T15:31:56.753Z,13.55
2024-02-01T15:34:25.460Z,12.43
2024-02-01T15:36:54.072Z,18.40
2024-02-01T15:39:23.249Z,22.85
2024-02-01T15:41:52.564Z,24.38
2024-02-01T15:44:22.608Z,38.63
2024-02-01T15:46:51.147Z,48.92
2024-02-01T15:49:19.836Z,54.15
2024-02-01T15:51:50.144Z,37.28
2024-02-01T15:54:18.926Z,33.92
2024-02-01T15:56:49.928Z,32.33
2024-02-01T15:59:18.626Z,27.10
2024-02-01T16:01:48.520Z,18.70
2024-02-01T16:04:17.274Z,17.67
2024-02-01T16:06:45.822Z,34.88
2024-02-01T16:09:14.649Z,37.65
2024-02-01T16:11:43.622Z,33.22
2024-02-01T16:14:17.854Z,64.68
2024-02-01T16:16:48.675Z,59.35
2024-02-01T16:19:28.486Z,54.72
2024-02-01T16:21:57.330Z,72.25
2024-02-01T16:24:53.499Z,69.55
2024-02-01T16:27:57.189Z,52.47
2024-02-01T16:30:57.647Z,57.58
2024-02-01T16:33:32.234Z,28.42
2024-02-01T16:36:06.786Z,29.27
2024-02-01T16:38:40.009Z,30.70
2024-02-01T16:41:29.075Z,31.35
2024-02-01T16:43:57.722Z,28.13
2024-02-01T16:46:56.756Z,18.75
2024-02-01T16:49:38.916Z,21.20
2024-02-01T16:52:24.653Z,22.45
2024-02-01T16:54:53.519Z,15.85
2024-02-01T16:57:22.059Z,17.42
2024-02-01T16:59:51.855Z,24.02
2024-02-01T17:02:47.021Z,21.10
2024-02-01T17:05:27.311Z,18.08
2024-02-01T17:07:56.796Z,34.40
2024-02-01T17:10:49.107Z,26.50
2024-02-01T17:13:17.609Z,32.97
2024-02-01T17:15:46.420Z,32.45
2024-02-01T17:18:17.250Z,30.88
2024-02-01T17:20:47.956Z,34.00
2024-02-01T17:23:17.584Z,57.47
2024-02-01T17:26:08.994Z,79.93
2024-02-01T17:28:39.966Z,76.30
2024-02-01T17:31:16.237Z,69.10
2024-02-01T17:33:53.393Z,46.03
2024-02-01T17:36:25.198Z,44.63
2024-02-01T17:38:54.433Z,33.35
2024-02-01T17:41:23.599Z,25.48
2024-02-01T17:43:53.170Z,28.27
2024-02-01T17:46:48.395Z,24.23
2024-02-01T17:49:49.257Z,23.20
2024-02-01T17:52:49.128Z,22.10
2024-02-01T17:55:24.373Z,23.33
2024-02-01T17:57:57.376Z,26.52
2024-02-01T18:00:28.434Z,23.40
2024-02-01T18:03:00.390Z,25.17
2024-02-01T18:05:35.474Z,24.25
2024-02-01T18:08:07.292Z,24.73
2024-02-01T18:10:39.903Z,23.90
2024-02-01T18:15:55.130Z,22.30
2024-02-01T18:18:26.713Z,21.38
2024-02-01T18:20:57.079Z,21.60
2024-02-01T18:23:29.177Z,17.17
2024-02-01T18:26:05.890Z,20.85
2024-02-01T18:28:36.982Z,17.38
2024-02-01T18:31:07.533Z,19.58
2024-02-01T18:33:40.213Z,17.38
2024-02-01T18:39:02.638Z,16.52
2024-02-01T18:41:34.389Z,17.55
2024-02-01T18:44:23.877Z,29.25
2024-02-01T18:46:53.940Z,17.90
2024-02-01T18:49:25.463Z,22.58
2024-02-01T18:54:30.080Z,23.58
2024-02-01T18:57:00.135Z,24.35
2024-02-01T18:59:52.964Z,18.55
2024-02-01T19:02:54.474Z,21.20
2024-02-01T19:05:23.850Z,17.27
2024-02-01T19:08:01.752Z,16.20
2024-02-01T19:10:47.838Z,20.38
2024-02-01T19:13:47.101Z,19.38
2024-02-01T19:16:19.483Z,18.10
2024-02-01T19:18:48.745Z,20.98
2024-02-01T19:21:17.949Z,20.63
2024-02-01T19:23:46.729Z,22.67
2024-02-01T19:26:17.674Z,18.65
2024-02-01T19:28:57.989Z,20.35
2024-02-01T19:31:26.864Z,19.23
2024-02-01T19:34:02.391Z,20.17
2024-02-01T19:36:34.099Z,19.48
2024-02-01T19:39:11.854Z,20.13
2024-02-01T19:41:45.858Z,19.40
2024-02-01T19:44:15.131Z,17.70
2024-02-01T19:46:44.419Z,18.08
2024-02-01T19:49:15.062Z,21.33
2024-02-01T19:51:46.326Z,20.98
2024-02-01T19:54:19.499Z,19.67
2024-02-01T19:56:52.967Z,20.17
2024-02-01T19:59:23.645Z,14.85
2024-02-01T20:01:52.529Z,17.65
2024-02-01T20:04:22.688Z,15.55
2024-02-01T20:06:51.645Z,16.50
2024-02-01T20:09:20.087Z,17.20
2024-02-01T20:11:50.274Z,18.40
2024-02-01T20:14:19.069Z,15.80
2024-02-01T20:16:47.648Z,16.42
2024-02-01T20:19:16.847Z,14.65
2024-02-01T20:21:46.383Z,17.85
2024-02-01T20:24:17.413Z,14.15
2024-02-01T20:26:49.638Z,17.80
2024-02-01T20:29:20.491Z,15.18
2024-02-01T20:31:50.542Z,14.68
2024-02-01T20:34:35.761Z,13.10
2024-02-01T20:37:06.040Z,14.30
2024-02-01T20:39:38.826Z,14.07
2024-02-01T20:42:13.572Z,16.73
2024-02-01T20:44:43.938Z,18.27
2024-02-01T20:47:15.406Z,14.73
2024-02-01T20:49:45.977Z,16.77
2024-02-01T20:52:22.218Z,16.60
2024-02-01T20:55:10.362Z,18.98
2024-02-01T20:57:40.184Z,15.55
2024-02-01T21:00:20.541Z,18.50
2024-02-01T21:03:02.691Z,16.30
2024-02-01T21:05:42.828Z,15.43
2024-02-01T21:08:15.516Z,14.45
2024-02-01T21:10:48.100Z,14.45
2024-02-01T21:13:18.190Z,18.05
2024-02-01T21:15:50.038Z,17.17
2024-02-01T21:18:22.093Z,15.67
2024-02-01T21:20:51.729Z,14.75
2024-02-01T21:23:36.595Z,16.40
2024-02-01T21:26:25.781Z,14.02
2024-02-01T21:28:59.478Z,14.25
2024-02-01T21:31:50.148Z,14.95
2024-02-01T21:34:21.847Z,17.83
2024-02-01T21:37:10.846Z,14.20
2024-02-01T21:39:50.870Z,15.15
2024-02-01T21:42:49.402Z,15.70
2024-02-01T21:45:24.832Z,14.20
2024-02-01T21:47:56.592Z,15.73
2024-02-01T21:50:26.740Z,15.93
2024-02-01T21:52:56.263Z,17.50
2024-02-01T21:55:26.855Z,13.82
2024-02-01T21:57:57.970Z,18.08
2024-02-01T22:00:26.947Z,15.85
2024-02-01T22:02:59.043Z,14.07
2024-02-01T22:05:29.143Z,15.55
2024-02-01T22:07:58.154Z,15.80
2024-02-01T22:10:26.675Z,15.80
2024-02-01T22:12:55.243Z,15.07
2024-02-01T22:15:28.357Z,16.50
2024-02-01T22:17:58.255Z,15.82
2024-02-01T22:20:27.403Z,13.70
2024-02-01T22:22:56.065Z,14.55
2024-02-01T22:25:25.336Z,12.70
2024-02-01T22:27:55.627Z,12.45
2024-02-01T22:30:24.394Z,12.50
2024-02-01T22:32:53.085Z,12.80
2024-02-01T22:35:23.186Z,15.05
2024-02-01T22:37:51.748Z,11.48
2024-02-01T22:40:20.725Z,11.85
2024-02-01T22:42:49.298Z,14.82
2024-02-01T22:45:18.070Z,12.07
2024-02-01T22:47:46.745Z,12.52
2024-02-01T22:50:15.441Z,12.32
2024-02-01T22:52:45.600Z,13.85
2024-02-01T22:55:14.214Z,12.77
2024-02-01T22:57:42.886Z,15.80
2024-02-01T23:00:18.760Z,14.75
2024-02-01T23:02:47.312Z,12.73
2024-02-01T23:05:15.789Z,11.32
2024-02-01T23:07:45.652Z,11.38
2024-02-01T23:10:18.808Z,14.30
2024-02-01T23:12:47.396Z,17.08
2024-02-01T23:15:16.161Z,12.95
2024-02-01T23:17:45.045Z,11.85
2024-02-01T23:20:14.384Z,11.77
2024-02-01T23:22:44.194Z,11.38
2024-02-01T23:25:14.494Z,12.57
2024-02-01T23:27:44.576Z,11.55
2024-02-01T23:30:14.099Z,12.40
2024-02-01T23:32:42.569Z,12.10
2024-02-01T23:35:11.089Z,9.23
2024-02-01T23:37:39.846Z,12.32
2024-02-01T23:40:12.246Z,10.57
2024-02-01T23:42:42.614Z,10.13
2024-02-01T23:45:12.220Z,10.85
2024-02-01T23:47:41.753Z,10.10
2024-02-01T23:50:13.373Z,10.18
2024-02-01T23:52:45.795Z,11.05
2024-02-01T23:55:14.290Z,8.65
2024-02-01T23:57:44.248Z,10.90
